createdAt,value
2019-04-20T00:01:31.297Z,15.72
2019-04-20T00:05:33.030Z,15.66
2019-04-20T00:09:45.562Z,15.65
2019-04-20T00:13:57.694Z,15.61
2019-04-20T00:18:01.842Z,15.60
2019-04-20T00:22:14.898Z,15.57
2019-04-20T00:26:57.752Z,15.49
2019-04-20T00:30:53.371Z,15.42
2019-04-20T00:34:47.133Z,15.28
2019-04-20T00:38:56.882Z,15.26
2019-04-20T00:43:02.707Z,15.33
2019-04-20T00:47:19.915Z,15.30
2019-04-20T00:51:35.147Z,15.28
2019-04-20T00:55:27.326Z,15.24
2019-04-20T00:59:55.304Z,15.20
2019-04-20T01:04:04.570Z,15.18
2019-04-20T01:08:12.982Z,15.15
2019-04-20T01:12:24.639Z,15.20
2019-04-20T01:16:36.627Z,15.21
2019-04-20T01:20:38.850Z,15.18
2019-04-20T01:24:48.272Z,15.20
2019-04-20T01:29:07.720Z,15.16
2019-04-20T01:33:17.657Z,15.16
2019-04-20T01:37:27.452Z,15.14
2019-04-20T01:41:20.316Z,15.12
2019-04-20T01:45:31.326Z,15.05
2019-04-20T01:49:37.428Z,15.10
2019-04-20T01:53:59.963Z,14.97
2019-04-20T01:58:39.490Z,14.98
2019-04-20T02:02:43.621Z,14.93
2019-04-20T02:06:48.840Z,14.89
2019-04-20T02:10:56.813Z,14.81
2019-04-20T02:15:04.025Z,14.69
2019-04-20T02:19:24.227Z,14.71
2019-04-20T02:23:28.129Z,14.60
2019-04-20T02:27:34.314Z,14.58
2019-04-20T02:44:49.978Z,14.31
2019-04-20T02:49:01.302Z,14.22
2019-04-20T02:53:06.182Z,14.19
2019-04-20T02:57:10.690Z,14.12
2019-04-20T03:01:40.765Z,14.09
2019-04-20T03:05:39.261Z,14.06
2019-04-20T03:09:58.419Z,14.07
2019-04-20T03:14:03.661Z,14.03
2019-04-20T03:18:17.942Z,13.97
2019-04-20T03:22:36.495Z,13.91
2019-04-20T03:26:40.230Z,13.95
2019-04-20T03:35:29.745Z,13.86
2019-04-20T03:39:17.644Z,13.78
2019-04-20T03:43:09.871Z,13.73
2019-04-20T03:47:26.842Z,13.71
2019-04-20T03:51:47.113Z,13.70
2019-04-20T03:55:52.859Z,13.68
2019-04-20T04:00:26.297Z,13.64
2019-04-20T04:04:39.010Z,13.59
2019-04-20T04:08:32.919Z,13.55
2019-04-20T04:13:11.849Z,13.48
2019-04-20T04:17:25.239Z,13.47
2019-04-20T04:21:44.746Z,13.44
2019-04-20T04:25:55.730Z,13.41
2019-04-20T04:30:01.861Z,13.41
2019-04-20T04:34:10.751Z,13.30
2019-04-20T04:38:24.027Z,13.33
2019-04-20T04:42:28.204Z,13.30
2019-04-20T04:46:18.577Z,13.31
2019-04-20T04:50:29.529Z,13.31
2019-04-20T04:54:45.389Z,13.28
2019-04-20T04:58:43.090Z,13.29
2019-04-20T05:02:54.805Z,13.22
2019-04-20T05:07:11.703Z,13.24
2019-04-20T05:11:06.926Z,13.26
2019-04-20T05:15:31.091Z,13.28
2019-04-20T05:19:40.973Z,13.26
2019-04-20T05:23:55.421Z,13.26
2019-04-20T05:28:05.273Z,13.28
2019-04-20T05:32:05.938Z,13.33
2019-04-20T05:36:29.620Z,13.38
2019-04-20T05:40:38.941Z,13.42
2019-04-20T05:44:46.084Z,13.44
2019-04-20T05:48:56.210Z,13.51
2019-04-20T05:53:07.739Z,13.52
2019-04-20T05:57:22.571Z,13.58
2019-04-20T06:01:22.822Z,13.67
2019-04-20T06:05:32.347Z,13.75
2019-04-20T06:09:39.749Z,13.93
2019-04-20T06:14:03.763Z,14.11
2019-04-20T06:18:20.260Z,14.16
2019-04-20T06:22:57.481Z,14.38
2019-04-20T06:27:08.200Z,14.54
2019-04-20T06:30:57.800Z,14.64
2019-04-20T06:35:25.985Z,14.99
2019-04-20T06:39:26.008Z,15.18
2019-04-20T06:43:31.496Z,15.25
2019-04-20T06:47:46.685Z,15.39
2019-04-20T06:51:59.363Z,15.44
2019-04-20T06:56:10.012Z,15.66
2019-04-20T07:04:41.936Z,16.01
2019-04-20T07:08:51.045Z,16.11
2019-04-20T07:12:40.874Z,16.27
2019-04-20T07:16:57.372Z,16.29
2019-04-20T07:21:16.402Z,16.59
2019-04-20T07:25:23.139Z,16.74
2019-04-20T07:29:36.827Z,16.88
2019-04-20T07:33:40.225Z,17.00
2019-04-20T07:42:00.663Z,17.33
2019-04-20T07:46:10.389Z,17.34
2019-04-20T07:50:07.495Z,17.43
2019-04-20T07:54:28.291Z,17.75
2019-04-20T07:58:22.753Z,17.94
2019-04-20T08:03:12.830Z,17.97
2019-04-20T08:06:56.712Z,18.12
2019-04-20T08:11:13.790Z,18.33
2019-04-20T08:15:42.907Z,18.56
2019-04-20T08:19:36.734Z,18.71
2019-04-20T08:23:44.451Z,18.84
2019-04-20T08:27:51.162Z,19.29
2019-04-20T08:32:38.723Z,19.30
2019-04-20T08:36:51.070Z,20.08
2019-04-20T08:40:57.416Z,20.58
2019-04-20T08:45:07.204Z,21.49
2019-04-20T08:49:22.031Z,21.64
2019-04-20T08:53:27.598Z,22.48
2019-04-20T08:57:11.671Z,23.15
2019-04-20T09:01:23.655Z,23.40
2019-04-20T09:05:40.038Z,23.58
2019-04-20T09:10:00.562Z,24.01
2019-04-20T09:13:51.551Z,24.30
2019-04-20T09:18:00.982Z,24.66
2019-04-20T09:22:34.027Z,24.28
2019-04-20T09:26:48.946Z,25.05
2019-04-20T09:30:54.282Z,25.10
2019-04-20T09:35:22.152Z,25.22
2019-04-20T09:39:37.812Z,24.88
2019-04-20T09:43:41.362Z,25.93
2019-04-20T09:47:51.884Z,25.80
2019-04-20T09:52:13.265Z,25.85
2019-04-20T09:56:19.835Z,25.25
2019-04-20T10:00:35.679Z,26.18
2019-04-20T10:04:25.787Z,26.15
2019-04-20T10:08:39.960Z,26.53
2019-04-20T10:12:41.873Z,26.06
2019-04-20T10:16:49.704Z,26.40
2019-04-20T10:20:57.909Z,25.76
2019-04-20T10:25:06.546Z,26.38
2019-04-20T10:29:13.341Z,25.65
2019-04-20T10:33:20.074Z,25.89
2019-04-20T10:37:33.699Z,25.88
2019-04-20T10:41:48.962Z,26.27
2019-04-20T10:45:48.933Z,26.54
2019-04-20T10:49:56.591Z,26.56
2019-04-20T10:54:04.510Z,26.88
2019-04-20T10:58:11.741Z,26.91
2019-04-20T11:02:19.501Z,26.84
2019-04-20T11:06:26.880Z,27.26
2019-04-20T11:10:49.177Z,26.95
2019-04-20T11:14:44.412Z,25.48
2019-04-20T11:18:51.386Z,26.93
2019-04-20T11:22:58.230Z,27.28
2019-04-20T11:27:05.067Z,28.32
2019-04-20T11:31:12.441Z,27.92
2019-04-20T11:35:25.731Z,27.73
2019-04-20T11:39:29.129Z,27.34
2019-04-20T11:43:35.950Z,28.02
2019-04-20T11:47:43.246Z,28.45
2019-04-20T11:51:50.135Z,29.11
2019-04-20T11:55:58.378Z,29.43
2019-04-20T12:00:06.130Z,29.50
2019-04-20T12:04:26.113Z,29.79
2019-04-20T12:08:23.056Z,30.06
2019-04-20T12:12:38.018Z,29.61
2019-04-20T12:16:39.458Z,30.39
2019-04-20T12:20:47.070Z,29.86
2019-04-20T12:24:54.152Z,28.52
2019-04-20T12:29:01.457Z,29.21
2019-04-20T12:33:09.481Z,29.86
2019-04-20T12:37:16.375Z,29.25
2019-04-20T12:41:34.475Z,28.00
2019-04-20T12:45:33.498Z,28.64
2019-04-20T12:49:41.360Z,29.30
2019-04-20T12:53:48.730Z,29.12
2019-04-20T12:57:56.698Z,28.05
2019-04-20T13:02:05.168Z,29.54
2019-04-20T13:06:12.157Z,30.04
2019-04-20T13:10:19.496Z,29.64
2019-04-20T13:15:16.583Z,30.19
2019-04-20T13:19:23.557Z,29.73
2019-04-20T13:23:31.022Z,28.86
2019-04-20T13:27:38.863Z,30.37
2019-04-20T13:31:48.222Z,29.93
2019-04-20T13:35:54.382Z,29.94
2019-04-20T13:40:01.169Z,30.30
2019-04-20T13:44:09.428Z,30.78
2019-04-20T13:48:17.004Z,30.19
2019-04-20T13:52:24.721Z,30.19
2019-04-20T13:56:32.491Z,30.34
2019-04-20T14:01:08.478Z,30.41
2019-04-20T14:05:16.975Z,30.79
2019-04-20T14:09:25.581Z,29.15
2019-04-20T14:13:38.600Z,30.08
2019-04-20T14:17:41.387Z,29.90
2019-04-20T14:21:48.227Z,30.09
2019-04-20T14:25:54.895Z,28.97
2019-04-20T14:30:01.639Z,29.72
2019-04-20T14:34:10.970Z,29.70
2019-04-20T14:38:17.723Z,29.22
2019-04-20T14:42:34.740Z,29.50
2019-04-20T14:46:33.599Z,29.22
2019-04-20T14:50:41.373Z,29.31
2019-04-20T14:54:48.219Z,29.81
2019-04-20T14:59:07.644Z,30.08
2019-04-20T15:03:43.770Z,29.48
2019-04-20T15:07:50.969Z,29.57
2019-04-20T15:11:58.917Z,29.59
2019-04-20T15:16:06.712Z,28.98
2019-04-20T15:20:31.369Z,28.67
2019-04-20T15:24:38.072Z,28.01
2019-04-20T15:28:46.169Z,27.87
2019-04-20T15:32:52.963Z,27.54
2019-04-20T15:37:00.188Z,27.37
2019-04-20T15:41:10.114Z,27.46
2019-04-20T15:45:19.016Z,26.86
2019-04-20T15:49:26.345Z,26.59
2019-04-20T15:53:33.492Z,26.62
2019-04-20T15:57:40.688Z,26.42
2019-04-20T16:01:51.376Z,26.11
2019-04-20T16:06:01.207Z,26.16
2019-04-20T16:10:09.505Z,25.94
2019-04-20T16:14:17.488Z,25.25
2019-04-20T16:18:25.145Z,25.48
2019-04-20T16:22:32.205Z,25.48
2019-04-20T16:26:44.168Z,24.99
2019-04-20T16:30:51.717Z,24.99
2019-04-20T16:34:58.454Z,25.13
2019-04-20T16:39:09.120Z,24.75
2019-04-20T16:43:24.443Z,24.61
2019-04-20T16:47:26.025Z,24.54
2019-04-20T16:51:32.894Z,24.62
2019-04-20T16:55:40.876Z,24.40
2019-04-20T16:59:52.644Z,24.27
2019-04-20T17:04:03.902Z,24.29
2019-04-20T17:08:06.876Z,24.11
2019-04-20T17:12:13.761Z,23.96
2019-04-20T17:16:21.757Z,23.92
2019-04-20T17:20:28.850Z,23.80
2019-04-20T17:24:35.797Z,23.74
2019-04-20T17:29:01.895Z,23.68
2019-04-20T17:33:10.428Z,23.50
2019-04-20T17:37:18.489Z,23.32
2019-04-20T17:41:44.430Z,23.29
2019-04-20T17:45:45.641Z,23.17
2019-04-20T17:50:02.090Z,23.05
2019-04-20T17:54:22.169Z,23.02
2019-04-20T17:58:32.960Z,22.87
2019-04-20T18:03:00.636Z,22.71
2019-04-20T18:07:04.333Z,22.65
2019-04-20T18:11:08.004Z,22.51
2019-04-20T18:15:29.538Z,22.39
2019-04-20T18:19:27.547Z,22.23
2019-04-20T18:23:36.526Z,22.20
2019-04-20T18:27:57.473Z,22.04
2019-04-20T18:32:07.252Z,21.96
2019-04-20T18:36:23.703Z,21.83
2019-04-20T18:40:33.844Z,21.64
2019-04-20T18:44:55.682Z,21.52
2019-04-20T18:49:01.104Z,21.34
2019-04-20T18:52:49.785Z,21.25
2019-04-20T18:56:58.115Z,21.02
2019-04-20T19:01:07.524Z,20.86
2019-04-20T19:05:15.820Z,20.79
2019-04-20T19:09:27.153Z,20.68
2019-04-20T19:13:40.664Z,20.49
2019-04-20T19:18:18.310Z,20.38
2019-04-20T19:22:12.669Z,20.25
2019-04-20T19:26:21.522Z,20.17
2019-04-20T19:30:37.414Z,20.10
2019-04-20T19:34:54.653Z,19.93
2019-04-20T19:39:15.217Z,19.90
2019-04-20T19:43:23.424Z,19.71
2019-04-20T19:47:42.968Z,19.63
2019-04-20T19:52:04.235Z,19.57
2019-04-20T19:55:56.614Z,19.52
2019-04-20T19:59:56.114Z,19.40
2019-04-20T20:04:06.425Z,19.33
2019-04-20T20:08:19.310Z,19.35
2019-04-20T20:12:23.330Z,19.27
2019-04-20T20:16:52.670Z,19.24
2019-04-20T20:21:00.858Z,19.16
2019-04-20T20:24:54.906Z,19.11
2019-04-20T20:29:11.846Z,19.03
2019-04-20T20:33:27.824Z,18.99
2019-04-20T20:37:34.715Z,18.89
2019-04-20T20:41:45.017Z,18.81
2019-04-20T20:45:56.388Z,18.72
2019-04-20T20:50:15.551Z,18.63
2019-04-20T20:54:09.219Z,18.53
2019-04-20T20:58:14.969Z,18.47
2019-04-20T21:02:28.249Z,18.41
2019-04-20T21:06:29.054Z,18.32
2019-04-20T21:10:41.866Z,18.22
2019-04-20T21:14:46.815Z,18.14
2019-04-20T21:19:07.836Z,18.04
2019-04-20T21:23:17.516Z,17.98
2019-04-20T21:27:19.919Z,17.88
2019-04-20T21:31:27.847Z,17.76
2019-04-20T21:35:38.194Z,17.69
2019-04-20T21:39:46.474Z,17.75
2019-04-20T21:43:54.056Z,17.65
2019-04-20T21:48:11.497Z,17.68
2019-04-20T21:52:21.264Z,17.69
2019-04-20T21:56:21.931Z,17.57
2019-04-20T22:00:50.464Z,17.58
2019-04-20T22:04:57.554Z,17.58
2019-04-20T22:09:12.783Z,17.50
2019-04-20T22:13:27.920Z,17.43
2019-04-20T22:17:35.951Z,17.32
2019-04-20T22:21:54.364Z,17.22
2019-04-20T22:26:09.604Z,17.12
2019-04-20T22:30:08.241Z,17.08
2019-04-20T22:34:20.911Z,17.03
2019-04-20T22:38:45.116Z,17.02
2019-04-20T22:42:55.157Z,16.97
2019-04-20T22:47:00.579Z,16.89
2019-04-20T22:51:25.932Z,16.83
2019-04-20T22:55:42.730Z,16.79
2019-04-20T22:59:37.273Z,16.75
2019-04-20T23:03:33.018Z,16.71
2019-04-20T23:07:41.010Z,16.69
2019-04-20T23:11:47.791Z,16.67
2019-04-20T23:15:59.182Z,16.57
2019-04-20T23:20:03.742Z,16.49
2019-04-20T23:24:14.561Z,16.43
2019-04-20T23:28:22.426Z,16.33
2019-04-20T23:32:30.137Z,16.31
2019-04-20T23:36:41.674Z,16.25
2019-04-20T23:40:45.815Z,16.14
2019-04-20T23:45:03.710Z,16.13
2019-04-20T23:49:29.903Z,15.92
2019-04-20T23:53:48.098Z,15.94
2019-04-20T23:57:46.075Z,15.87
